Time;durP1;ratioP1;P1;durP2;ratioP2;P2;SDS_P1;SDS_P2;PMS_P1;PMS_P2;Temp;Humidity;BMP_temperature;BMP_pressure;BME280_temperature;BME280_humidity;BME280_pressure;Samples;Min_cycle;Max_cycle;Signal;HPM_P1;HPM_P2
2022/09/20 00:02:03;;;;;;;9.88;3.00;;;10.70;99.90;;;;;;4992720;28;20053;-71
2022/09/20 00:04:29;;;;;;;7.75;4.05;;;10.80;99.90;;;;;;4992394;28;20042;-71
2022/09/20 00:06:56;;;;;;;12.75;4.15;;;10.70;99.90;;;;;;4993014;28;20042;-71
2022/09/20 00:09:22;;;;;;;5.35;3.45;;;10.70;99.90;;;;;;4975930;28;20402;-72
2022/09/20 00:11:48;;;;;;;21.88;4.53;;;10.70;99.90;;;;;;4975298;28;20034;-72
2022/09/20 00:14:14;;;;;;;6.80;2.75;;;10.70;99.90;;;;;;4991854;28;20468;-71
2022/09/20 00:16:40;;;;;;;10.13;3.20;;;10.70;99.90;;;;;;4993048;28;20049;-72
2022/09/20 00:19:08;;;;;;;9.32;3.63;;;10.70;99.90;;;;;;4975207;28;20047;-72
2022/09/20 00:21:36;;;;;;;7.28;2.63;;;10.70;99.90;;;;;;4993177;28;20027;-72
2022/09/20 00:24:04;;;;;;;8.23;3.03;;;10.70;99.90;;;;;;4991473;28;20038;-72
2022/09/20 00:26:31;;;;;;;11.15;3.35;;;10.60;99.90;;;;;;4975498;28;20479;-72
2022/09/20 00:28:57;;;;;;;6.35;3.15;;;10.60;99.90;;;;;;4975492;28;20038;-72
2022/09/20 00:31:24;;;;;;;5.07;2.58;;;10.50;99.90;;;;;;4993373;28;20035;-72
2022/09/20 00:36:38;;;;;;;12.60;2.95;;;10.40;99.90;;;;;;4978090;28;20042;-72
2022/09/20 00:39:04;;;;;;;5.65;2.60;;;10.40;99.90;;;;;;4991918;28;20054;-72
2022/09/20 00:41:32;;;;;;;6.30;2.60;;;10.40;99.90;;;;;;4993004;28;20057;-72
2022/09/20 00:43:59;;;;;;;6.00;2.53;;;10.40;99.90;;;;;;4991210;28;20042;-72
2022/09/20 00:46:33;;;;;;;7.30;3.05;;;10.50;99.90;;;;;;4992183;28;20050;-71
2022/09/20 00:49:20;;;;;;;14.38;4.40;;;10.50;99.90;;;;;;4992419;28;20037;-72
2022/09/20 00:51:54;;;;;;;6.82;2.53;;;10.30;99.90;;;;;;4985768;28;20166;-72
2022/09/20 00:54:22;;;;;;;5.68;2.50;;;10.30;99.90;;;;;;4985617;28;20034;-72
2022/09/20 00:56:48;;;;;;;8.45;2.67;;;10.10;99.90;;;;;;4991925;28;20042;-72
2022/09/20 00:59:15;;;;;;;9.75;2.58;;;10.00;99.90;;;;;;4992500;28;20026;-71
2022/09/20 01:01:45;;;;;;;5.68;2.22;;;9.90;99.90;;;;;;4986377;28;20027;-70
2022/09/20 01:04:14;;;;;;;6.45;2.38;;;9.90;99.90;;;;;;4986048;28;20355;-72
2022/09/20 01:06:44;;;;;;;6.63;3.30;;;9.80;99.90;;;;;;4995555;28;20395;-71
2022/09/20 01:09:10;;;;;;;6.23;3.17;;;9.70;99.90;;;;;;4970738;28;20057;-71
2022/09/20 01:11:38;;;;;;;9.77;3.15;;;9.70;99.90;;;;;;4992757;28;20034;-71
2022/09/20 01:14:04;;;;;;;7.47;2.75;;;9.60;99.90;;;;;;4984377;28;20487;-72
2022/09/20 01:16:32;;;;;;;8.68;3.10;;;9.70;99.90;;;;;;4992594;28;20042;-72
2022/09/20 01:19:02;;;;;;;5.93;2.58;;;9.60;99.90;;;;;;4974305;28;20034;-71
2022/09/20 01:21:30;;;;;;;8.05;3.03;;;9.70;99.90;;;;;;4992567;28;20391;-71
2022/09/20 01:24:22;;;;;;;7.65;3.05;;;9.70;99.90;;;;;;4990608;28;20398;-72
2022/09/20 01:27:09;;;;;;;8.85;4.47;;;9.60;99.90;;;;;;4986963;28;20126;-71
2022/09/20 01:29:57;;;;;;;5.82;3.00;;;9.70;99.90;;;;;;4992629;28;20038;-71
2022/09/20 01:32:28;;;;;;;9.60;4.18;;;9.60;99.90;;;;;;4987164;28;20034;-71
2022/09/20 01:34:59;;;;;;;10.23;3.40;;;9.50;99.90;;;;;;4990354;28;20037;-71
2022/09/20 01:37:47;;;;;;;6.88;3.58;;;9.40;99.90;;;;;;4992118;28;20054;-71
2022/09/20 01:40:34;;;;;;;4.63;2.42;;;9.40;99.90;;;;;;4992259;28;20494;-72
2022/09/20 01:43:06;;;;;;;6.15;3.03;;;9.40;99.90;;;;;;4991562;28;20035;-71
2022/09/20 01:45:33;;;;;;;6.63;3.47;;;9.40;99.90;;;;;;4987096;28;20042;-72
2022/09/20 01:48:08;;;;;;;7.22;3.03;;;9.40;99.90;;;;;;4995322;28;20038;-71
2022/09/20 01:51:21;;;;;;;5.88;3.10;;;9.40;99.90;;;;;;4996050;28;20053;-72
2022/09/20 01:54:00;;;;;;;9.45;3.58;;;9.40;99.90;;;;;;4994539;28;20042;-72
2022/09/20 01:56:52;;;;;;;9.80;3.35;;;9.40;99.90;;;;;;4995917;28;20045;-71
2022/09/20 01:59:27;;;;;;;5.93;3.28;;;9.40;99.90;;;;;;4995872;28;20057;-72
2022/09/20 02:02:05;;;;;;;5.75;2.92;;;9.40;99.90;;;;;;4995322;28;20034;-72
2022/09/20 02:04:49;;;;;;;9.20;3.15;;;9.40;99.90;;;;;;4993850;28;20057;-72
2022/09/20 02:07:33;;;;;;;7.95;3.22;;;9.40;99.90;;;;;;4990746;28;20215;-71
2022/09/20 02:10:05;;;;;;;6.15;2.80;;;9.40;99.90;;;;;;4995064;28;20034;-70
2022/09/20 02:12:54;;;;;;;7.22;3.03;;;9.40;99.90;;;;;;4978142;28;20372;-72
2022/09/20 02:15:54;;;;;;;7.80;2.55;;;9.40;99.90;;;;;;4994743;28;20045;-72
2022/09/20 02:18:54;;;;;;;4.72;3.55;;;9.40;99.90;;;;;;4962198;28;20054;-72
2022/09/20 02:22:06;;;;;;;5.50;3.22;;;9.30;99.90;;;;;;4978146;28;20118;-72
2022/09/20 02:24:49;;;;;;;6.32;3.00;;;9.40;99.90;;;;;;4908066;28;20045;-72
2022/09/20 02:27:39;;;;;;;7.32;3.35;;;9.30;99.90;;;;;;4995205;28;20042;-71
2022/09/20 02:30:14;;;;;;;10.52;3.88;;;9.30;99.90;;;;;;4994506;28;20045;-71
2022/09/20 02:32:40;;;;;;;6.82;3.10;;;9.20;99.90;;;;;;4995426;28;20037;-71
2022/09/20 02:35:31;;;;;;;7.15;3.35;;;9.20;99.90;;;;;;4993048;28;20034;-71
2022/09/20 02:38:25;;;;;;;5.07;3.00;;;9.10;99.90;;;;;;4994618;28;20057;-72
2022/09/20 02:41:29;;;;;;;11.20;3.03;;;9.00;99.90;;;;;;4994004;28;20030;-72
2022/09/20 02:44:17;;;;;;;5.25;2.85;;;9.00;99.90;;;;;;4992591;28;20114;-72
2022/09/20 02:47:24;;;;;;;5.80;3.03;;;9.00;99.90;;;;;;4994854;28;20042;-71
2022/09/20 02:50:00;;;;;;;4.68;2.88;;;8.90;99.90;;;;;;4994588;28;20035;-71
2022/09/20 02:52:42;;;;;;;7.28;3.97;;;8.90;99.90;;;;;;4995288;28;20463;-72
2022/09/20 02:55:14;;;;;;;5.63;3.45;;;8.90;99.90;;;;;;4992863;28;20107;-72
2022/09/20 02:57:54;;;;;;;8.73;3.25;;;8.90;99.90;;;;;;4994498;28;20042;-70
2022/09/20 03:00:25;;;;;;;6.35;3.92;;;9.00;99.90;;;;;;4994888;28;20035;-71
2022/09/20 03:02:54;;;;;;;;;;;8.90;99.90;;;;;;4994792;28;20037;-72
2022/09/20 03:05:34;;;;;;;5.10;3.00;;;8.90;99.90;;;;;;4993566;28;19910;-73
2022/09/20 03:08:13;;;;;;;8.20;4.00;;;8.90;99.90;;;;;;4993460;28;20058;-72
2022/09/20 03:11:05;;;;;;;8.75;3.45;;;8.90;99.90;;;;;;4995022;28;20375;-71
2022/09/20 03:13:42;;;;;;;7.10;3.45;;;8.90;99.90;;;;;;4993919;28;20030;-71
2022/09/20 03:16:14;;;;;;;8.27;5.00;;;8.90;99.90;;;;;;4994003;28;20041;-72
2022/09/20 03:19:05;;;;;;;8.65;3.30;;;8.90;99.90;;;;;;4994406;28;20045;-72
2022/09/20 03:22:05;;;;;;;7.82;3.80;;;8.90;99.90;;;;;;4994578;28;20034;-71
2022/09/20 03:25:02;;;;;;;8.52;3.10;;;8.90;99.90;;;;;;4969559;28;20034;-71
2022/09/20 03:27:55;;;;;;;12.07;3.70;;;8.90;99.90;;;;;;4994121;28;20045;-71
2022/09/20 03:30:40;;;;;;;8.85;3.40;;;8.90;99.90;;;;;;4956132;28;20050;-72
2022/09/20 03:33:28;;;;;;;6.80;3.58;;;8.90;99.90;;;;;;4993542;28;20038;-72
2022/09/20 03:35:55;;;;;;;10.18;4.15;;;9.00;99.90;;;;;;4992100;28;20383;-72
2022/09/20 03:38:53;;;;;;;11.13;4.35;;;8.90;99.90;;;;;;4993933;28;20490;-71
2022/09/20 03:41:28;;;;;;;7.13;3.85;;;8.90;99.90;;;;;;4940095;28;20050;-71
2022/09/20 03:43:57;;;;;;;8.50;3.70;;;8.80;99.90;;;;;;4992346;28;20027;-72
2022/09/20 03:46:47;;;;;;;7.20;3.08;;;8.70;99.90;;;;;;4992311;28;20053;-71
2022/09/20 03:49:53;;;;;;;8.25;3.50;;;8.50;99.90;;;;;;4992072;28;20042;-71
2022/09/20 03:52:44;;;;;;;9.10;3.78;;;8.40;99.90;;;;;;4992028;28;20034;-72
2022/09/20 03:55:30;;;;;;;7.20;3.33;;;8.40;99.90;;;;;;4987495;28;20390;-72
2022/09/20 03:58:26;;;;;;;7.28;3.15;;;8.30;99.90;;;;;;4993585;28;20050;-71
2022/09/20 04:01:23;;;;;;;16.58;3.65;;;8.20;99.90;;;;;;4975707;28;20479;-71
2022/09/20 04:04:43;;;;;;;9.30;3.30;;;8.20;99.90;;;;;;4987488;28;20038;-71
2022/09/20 04:07:37;;;;;;;8.75;3.70;;;8.20;99.90;;;;;;4894441;29;20096;-72
2022/09/20 04:10:17;;;;;;;9.18;3.13;;;7.90;99.90;;;;;;4987570;28;20054;-72
2022/09/20 04:13:08;;;;;;;6.20;3.15;;;7.70;99.90;;;;;;4976139;28;20030;-72
2022/09/20 04:15:52;;;;;;;;;;;7.60;99.90;;;;;;4992183;28;20030;-72
2022/09/20 04:18:26;;;;;;;6.97;3.28;;;7.50;99.90;;;;;;4990032;28;19917;-71
2022/09/20 04:21:22;;;;;;;9.68;3.00;;;7.40;99.90;;;;;;4991854;28;20026;-71
2022/09/20 04:23:48;;;;;;;7.07;2.80;;;7.40;99.90;;;;;;4993452;28;20501;-71
2022/09/20 04:26:26;;;;;;;5.85;2.97;;;7.30;99.90;;;;;;4990957;28;20038;-72
2022/09/20 04:28:55;;;;;;;7.30;3.50;;;7.20;99.90;;;;;;4993316;28;20034;-72
2022/09/20 04:31:52;;;;;;;16.13;3.90;;;7.10;99.90;;;;;;4992963;28;20567;-72
2022/09/20 04:36:27;;;;;;;4.97;2.97;;;7.00;99.90;;;;;;4991471;28;20034;-73
2022/09/20 04:37:37;;;;;;;12.38;3.35;;;6.90;99.90;;;;;;4992047;28;20380;-72
2022/09/20 04:40:31;;;;;;;6.45;3.67;;;6.80;99.90;;;;;;4992298;28;20045;-72
2022/09/20 04:43:31;;;;;;;7.03;3.83;;;6.80;99.90;;;;;;4992884;28;20045;-72
2022/09/20 04:46:35;;;;;;;5.50;3.40;;;6.80;99.90;;;;;;4984527;28;20038;-72
2022/09/20 04:49:25;;;;;;;7.40;3.63;;;6.80;99.90;;;;;;4992577;28;20034;-72
2022/09/20 04:52:05;;;;;;;9.45;3.95;;;6.80;99.90;;;;;;4987555;28;20460;-72
2022/09/20 04:54:59;;;;;;;10.55;3.80;;;6.90;99.90;;;;;;4991514;28;20038;-72
2022/09/20 04:57:40;;;;;;;6.15;3.90;;;6.90;99.90;;;;;;4992916;28;20038;-72
2022/09/20 05:00:13;;;;;;;6.90;2.95;;;6.90;99.90;;;;;;4991556;28;20042;-72
2022/09/20 05:03:06;;;;;;;6.45;3.95;;;6.80;99.90;;;;;;4975382;28;20034;-72
2022/09/20 05:05:44;;;;;;;7.88;3.05;;;6.90;99.90;;;;;;4991261;28;20034;-73
2022/09/20 05:08:47;;;;;;;10.95;3.47;;;6.90;99.90;;;;;;4990859;28;20049;-72
2022/09/20 05:11:36;;;;;;;12.73;4.68;;;6.90;99.90;;;;;;4989580;28;20394;-73
2022/09/20 05:14:32;;;;;;;9.35;3.22;;;7.00;99.90;;;;;;4974153;28;20049;-73
2022/09/20 05:17:36;;;;;;;8.68;3.85;;;6.90;99.90;;;;;;4989437;28;20034;-73
2022/09/20 05:20:22;;;;;;;10.13;4.38;;;6.70;99.90;;;;;;4992004;28;20036;-73
2022/09/20 05:22:57;;;;;;;6.80;3.28;;;6.70;99.90;;;;;;4995302;28;20034;-72
2022/09/20 05:26:07;;;;;;;9.23;3.92;;;6.80;99.90;;;;;;4992083;28;20030;-72
2022/09/20 05:28:48;;;;;;;8.25;4.00;;;7.00;99.90;;;;;;4972306;28;20054;-75
2022/09/20 05:31:37;;;;;;;7.75;3.80;;;7.10;99.90;;;;;;4992493;28;20046;-74
2022/09/20 05:34:21;;;;;;;9.27;4.05;;;7.30;99.90;;;;;;4990967;28;20443;-75
2022/09/20 05:37:11;;;;;;;9.48;4.38;;;7.30;99.90;;;;;;4991931;28;20057;-73
2022/09/20 05:40:04;;;;;;;7.47;4.35;;;7.40;99.90;;;;;;4994170;28;20037;-75
2022/09/20 05:42:55;;;;;;;9.48;4.15;;;7.50;99.90;;;;;;4981396;28;20053;-75
2022/09/20 05:45:59;;;;;;;7.97;4.32;;;7.70;99.90;;;;;;4990431;28;20083;-74
2022/09/20 05:48:37;;;;;;;7.35;4.70;;;7.80;99.90;;;;;;4992035;28;20038;-74
2022/09/20 05:51:40;;;;;;;13.85;3.83;;;8.00;99.90;;;;;;4991373;28;20030;-75
2022/09/20 05:54:46;;;;;;;10.10;4.10;;;8.00;99.90;;;;;;4990308;28;20035;-76
2022/09/20 05:57:38;;;;;;;8.00;3.47;;;8.00;99.90;;;;;;4987057;28;20038;-74
2022/09/20 06:00:20;;;;;;;7.97;3.97;;;8.50;99.90;;;;;;4991626;28;20041;-75
2022/09/20 06:03:04;;;;;;;5.20;3.00;;;9.10;99.90;;;;;;4986171;28;20038;-75
2022/09/20 06:05:41;;;;;;;3.97;2.10;;;9.00;99.90;;;;;;4990662;28;20035;-74
2022/09/20 06:08:20;;;;;;;3.67;2.05;;;8.80;99.90;;;;;;4991751;28;20061;-75
2022/09/20 06:10:49;;;;;;;7.53;1.98;;;8.80;99.90;;;;;;4991952;28;20038;-74
2022/09/20 06:13:40;;;;;;;8.68;2.42;;;9.00;99.90;;;;;;4973911;28;20050;-75
2022/09/20 06:16:12;;;;;;;9.07;2.92;;;9.00;99.90;;;;;;4990271;28;20041;-76
2022/09/20 06:18:45;;;;;;;12.18;2.72;;;8.90;99.90;;;;;;4992136;28;20410;-75
2022/09/20 06:21:45;;;;;;;6.80;2.33;;;8.70;99.90;;;;;;4991725;28;20033;-75
2022/09/20 06:24:35;;;;;;;9.05;2.55;;;8.50;99.90;;;;;;4972353;28;20045;-76
2022/09/20 06:27:09;;;;;;;4.65;2.40;;;8.50;99.90;;;;;;4973959;28;20525;-75
2022/09/20 06:29:40;;;;;;;7.95;2.90;;;8.60;99.90;;;;;;4992017;28;20038;-76
2022/09/20 06:32:07;;;;;;;;;;;8.60;99.90;;;;;;4978800;28;20509;-74
2022/09/20 06:34:34;;;;;;;5.50;2.22;;;8.90;99.90;;;;;;4993191;28;19909;-76
2022/09/20 06:43:15;;;;;;;8.55;2.53;;;8.90;99.90;;;;;;4994578;28;20034;-74
2022/09/20 06:45:41;;;;;;;4.18;2.25;;;9.30;99.90;;;;;;4993731;28;20041;-75
2022/09/20 06:48:12;;;;;;;8.55;2.83;;;9.30;99.90;;;;;;4988480;28;20419;-76
2022/09/20 06:50:38;;;;;;;6.97;2.22;;;9.30;99.90;;;;;;4995451;28;20475;-76
2022/09/20 06:53:06;;;;;;;5.05;2.60;;;9.40;99.90;;;;;;4988251;28;20360;-74
2022/09/20 06:55:42;;;;;;;6.32;2.40;;;9.50;99.90;;;;;;4993735;28;20144;-74
2022/09/20 06:58:08;;;;;;;4.53;2.63;;;9.70;99.90;;;;;;4974481;28;20042;-76
2022/09/20 07:00:35;;;;;;;6.97;3.15;;;10.10;99.90;;;;;;4995225;28;20033;-76
2022/09/20 07:03:01;;;;;;;6.10;2.70;;;10.00;99.90;;;;;;4994194;28;20053;-75
2022/09/20 07:05:27;;;;;;;7.78;3.28;;;9.90;99.90;;;;;;4986902;28;20030;-74
2022/09/20 07:07:58;;;;;;;5.43;2.30;;;10.10;99.90;;;;;;4994997;28;20462;-76
2022/09/20 07:10:27;;;;;;;;;;;10.20;99.90;;;;;;4994854;28;20039;-76
2022/09/20 07:12:58;;;;;;;7.15;3.20;;;10.30;99.90;;;;;;4988481;28;20266;-73
2022/09/20 07:15:25;;;;;;;10.63;3.28;;;11.00;99.90;;;;;;4986632;28;20030;-74
2022/09/20 07:17:52;;;;;;;4.78;2.55;;;11.30;99.90;;;;;;4988292;28;20045;-74
2022/09/20 07:20:21;;;;;;;4.55;2.13;;;11.10;99.90;;;;;;4994021;28;20387;-75
2022/09/20 07:22:48;;;;;;;5.18;2.28;;;10.80;99.90;;;;;;4972402;28;20359;-75
2022/09/20 07:25:14;;;;;;;8.27;2.65;;;10.90;99.90;;;;;;4992450;28;20030;-76
2022/09/20 07:27:40;;;;;;;7.00;2.78;;;11.40;99.90;;;;;;4976382;28;20042;-74
2022/09/20 07:30:07;;;;;;;4.97;2.05;;;11.90;99.90;;;;;;4993798;28;20033;-75
2022/09/20 07:32:33;;;;;;;4.90;2.05;;;12.50;99.90;;;;;;4993186;28;20038;-76
2022/09/20 07:35:02;;;;;;;4.30;1.90;;;12.40;99.90;;;;;;4992765;28;20042;-76
2022/09/20 07:37:29;;;;;;;6.68;2.45;;;12.00;99.90;;;;;;4994107;28;20399;-74
2022/09/20 07:39:55;;;;;;;9.80;2.17;;;12.10;99.90;;;;;;4976783;28;20376;-76
2022/09/20 07:42:21;;;;;;;7.55;2.35;;;12.10;99.90;;;;;;4992658;28;20223;-76
2022/09/20 07:44:50;;;;;;;6.32;2.17;;;12.10;99.90;;;;;;4992859;28;20045;-74
2022/09/20 07:47:16;;;;;;;4.78;1.70;;;12.10;99.90;;;;;;4993430;28;20075;-74
2022/09/20 07:49:43;;;;;;;10.15;2.40;;;12.20;99.90;;;;;;4993874;28;20045;-75
2022/09/20 07:52:10;;;;;;;7.28;2.38;;;12.20;99.90;;;;;;4993370;28;20026;-76
2022/09/20 07:54:36;;;;;;;8.45;2.60;;;12.50;99.90;;;;;;4992543;28;20053;-75
2022/09/20 07:57:04;;;;;;;4.65;1.60;;;12.70;99.90;;;;;;4993930;28;20049;-77
2022/09/20 07:59:30;;;;;;;7.55;2.63;;;12.80;99.90;;;;;;4993727;28;20037;-76
2022/09/20 08:01:59;;;;;;;5.40;1.65;;;13.10;99.90;;;;;;4993658;28;20037;-74
2022/09/20 08:04:25;;;;;;;4.57;1.98;;;12.90;99.90;;;;;;4991841;28;20030;-73
2022/09/20 08:06:51;;;;;;;5.97;1.77;;;13.00;99.90;;;;;;4976082;28;20046;-76
2022/09/20 08:09:21;;;;;;;4.05;2.22;;;13.30;99.90;;;;;;4992820;28;20430;-76
2022/09/20 08:11:48;;;;;;;6.47;1.63;;;13.30;99.90;;;;;;4993594;28;20038;-75
2022/09/20 08:14:16;;;;;;;6.43;1.35;;;13.30;99.90;;;;;;4991941;28;20046;-76
2022/09/20 08:16:47;;;;;;;5.60;1.35;;;13.50;99.90;;;;;;4993304;28;20522;-74
2022/09/20 08:19:16;;;;;;;8.65;1.77;;;13.70;99.90;;;;;;4992807;28;20041;-75
2022/09/20 08:21:43;;;;;;;4.55;1.63;;;14.50;99.90;;;;;;4992816;28;20057;-76
2022/09/20 08:24:10;;;;;;;12.05;2.80;;;14.90;99.90;;;;;;4991433;28;20356;-75
2022/09/20 08:26:36;;;;;;;2.35;0.90;;;14.90;99.90;;;;;;4993071;28;20030;-75
2022/09/20 08:29:04;;;;;;;8.20;1.52;;;15.20;99.90;;;;;;4993175;28;20030;-76
2022/09/20 08:31:35;;;;;;;8.25;1.58;;;14.80;99.90;;;;;;4993458;28;20031;-77
2022/09/20 08:34:06;;;;;;;4.57;1.20;;;14.20;99.90;;;;;;4992230;28;20038;-76
2022/09/20 08:36:33;;;;;;;6.10;2.05;;;14.20;99.90;;;;;;4993082;28;20054;-75
2022/09/20 08:38:59;;;;;;;4.07;1.60;;;14.00;99.90;;;;;;4993170;28;20030;-75
2022/09/20 08:42:05;;;;;;;4.72;1.63;;;13.80;99.90;;;;;;4974712;28;20058;-75
2022/09/20 08:44:39;;;;;;;5.13;1.38;;;14.10;99.90;;;;;;4950656;28;20045;-76
2022/09/20 08:47:21;;;;;;;7.35;1.85;;;14.40;99.90;;;;;;4975405;28;20102;-76
2022/09/20 08:49:49;;;;;;;2.67;1.05;;;14.20;99.90;;;;;;4993116;28;20046;-74
2022/09/20 08:52:19;;;;;;;9.93;2.47;;;14.50;99.90;;;;;;4992543;28;20444;-77
2022/09/20 08:54:46;;;;;;;3.05;1.30;;;14.60;99.90;;;;;;4974041;28;20034;-75
2022/09/20 08:57:17;;;;;;;7.47;1.30;;;14.70;99.90;;;;;;4992176;28;20038;-75
2022/09/20 08:59:43;;;;;;;5.20;1.52;;;14.90;99.90;;;;;;4992891;28;20035;-77
2022/09/20 09:02:18;;;;;;;6.65;1.50;;;15.10;99.90;;;;;;4992070;28;20038;-75
2022/09/20 09:04:47;;;;;;;5.07;1.52;;;15.70;99.90;;;;;;4993651;28;20045;-76
2022/09/20 09:07:18;;;;;;;9.63;2.15;;;15.60;99.90;;;;;;4991681;28;20562;-75
2022/09/20 09:09:46;;;;;;;6.53;1.50;;;15.20;99.90;;;;;;4992750;28;20380;-75
2022/09/20 09:12:22;;;;;;;6.72;1.77;;;15.30;99.90;;;;;;4992056;28;20026;-74
2022/09/20 09:14:53;;;;;;;5.70;1.10;;;16.00;99.90;;;;;;4991150;28;20034;-74
2022/09/20 09:17:25;;;;;;;5.50;1.17;;;15.90;99.90;;;;;;4992142;28;20038;-76
2022/09/20 09:20:16;;;;;;;4.75;1.25;;;15.40;99.90;;;;;;4992566;28;20467;-74
2022/09/20 09:22:44;;;;;;;;;;;15.30;99.90;;;;;;4992744;28;20042;-74
2022/09/20 09:25:16;;;;;;;6.50;1.65;;;15.00;99.90;;;;;;4990575;28;19909;-76
2022/09/20 09:27:53;;;;;;;5.72;1.50;;;14.50;99.90;;;;;;4992718;28;20038;-75
2022/09/20 09:30:26;;;;;;;7.22;1.85;;;14.30;99.90;;;;;;4974463;28;20038;-76
2022/09/20 09:33:17;;;;;;;7.95;1.92;;;14.30;99.90;;;;;;4992410;28;20041;-75
2022/09/20 09:35:51;;;;;;;9.70;2.28;;;14.10;99.90;;;;;;4990981;28;20030;-77
2022/09/20 09:38:22;;;;;;;5.40;2.10;;;14.90;99.90;;;;;;4989286;28;20053;-76
2022/09/20 09:40:58;;;;;;;5.45;2.00;;;15.50;99.90;;;;;;5011663;28;20045;-73
2022/09/20 09:43:32;;;;;;;4.95;1.33;;;15.70;99.90;;;;;;4993093;28;20039;-76
2022/09/20 09:46:22;;;;;;;5.97;2.15;;;16.50;99.90;;;;;;4991093;28;20038;-75
2022/09/20 09:49:17;;;;;;;6.13;1.33;;;16.40;98.10;;;;;;4992436;28;20038;-77
2022/09/20 09:52:10;;;;;;;6.25;1.30;;;16.10;98.80;;;;;;4992586;28;20379;-76
2022/09/20 09:54:41;;;;;;;7.00;1.85;;;15.50;99.10;;;;;;4987390;28;20038;-76
2022/09/20 09:57:30;;;;;;;4.95;1.20;;;14.80;99.90;;;;;;4992051;28;20030;-76
2022/09/20 10:00:11;;;;;;;9.10;1.48;;;14.40;99.90;;;;;;4992554;28;20037;-75
2022/09/20 10:03:02;;;;;;;5.40;1.60;;;14.40;99.90;;;;;;4992092;28;20042;-77
2022/09/20 10:06:05;;;;;;;9.18;1.85;;;14.20;99.90;;;;;;4990558;28;20290;-74
2022/09/20 10:09:00;;;;;;;3.25;1.67;;;14.10;99.90;;;;;;4995610;28;20057;-74
2022/09/20 10:11:33;;;;;;;6.53;2.53;;;14.10;99.90;;;;;;4995149;28;20026;-76
2022/09/20 10:14:20;;;;;;;6.38;1.85;;;14.10;99.90;;;;;;4994731;28;20530;-74
2022/09/20 10:16:55;;;;;;;9.48;1.95;;;14.10;99.90;;;;;;4995578;28;20049;-75
2022/09/20 10:19:39;;;;;;;5.57;1.95;;;14.10;99.90;;;;;;4994950;28;20049;-75
2022/09/20 10:22:50;;;;;;;3.17;1.15;;;14.40;99.90;;;;;;4990223;28;20026;-74
2022/09/20 10:25:35;;;;;;;7.85;1.50;;;15.20;99.90;;;;;;4895752;29;20490;-74
2022/09/20 10:28:10;;;;;;;3.25;1.10;;;15.70;97.40;;;;;;4985372;28;20050;-74
2022/09/20 10:31:12;;;;;;;3.75;1.17;;;16.40;95.60;;;;;;4978042;28;20038;-74
2022/09/20 10:33:50;;;;;;;2.45;0.88;;;16.40;92.00;;;;;;4994328;28;20038;-77
2022/09/20 10:36:38;;;;;;;3.78;0.95;;;15.70;90.10;;;;;;4994542;28;20437;-75
2022/09/20 10:39:23;;;;;;;5.90;1.35;;;15.50;92.40;;;;;;4995578;28;20058;-74
2022/09/20 10:45:18;;;;;;;2.97;1.40;;;14.90;92.30;;;;;;4993949;28;20045;-75
2022/09/20 10:48:19;;;;;;;16.00;1.67;;;14.80;93.90;;;;;;4990371;28;20042;-74
2022/09/20 10:50:56;;;;;;;2.97;1.10;;;14.10;93.00;;;;;;4995421;28;20042;-75
2022/09/20 10:53:42;;;;;;;3.25;0.90;;;13.60;95.90;;;;;;4994588;28;20034;-76
2022/09/20 10:56:33;;;;;;;4.40;1.00;;;13.40;99.30;;;;;;4977142;28;20044;-75
2022/09/20 10:59:21;;;;;;;2.45;0.85;;;12.90;99.90;;;;;;4994656;28;20049;-76
2022/09/20 11:02:03;;;;;;;0.95;0.60;;;12.80;99.90;;;;;;4994401;28;20479;-75
2022/09/20 11:04:54;;;;;;;3.22;0.70;;;13.00;99.90;;;;;;4975178;28;20046;-75
2022/09/20 11:07:49;;;;;;;2.72;0.60;;;13.00;99.90;;;;;;4994295;28;20486;-75
2022/09/20 11:10:35;;;;;;;2.72;1.00;;;12.90;99.90;;;;;;4977139;28;20045;-76
2022/09/20 11:13:09;;;;;;;2.00;1.05;;;13.20;99.90;;;;;;4994848;28;20030;-76
2022/09/20 11:15:44;;;;;;;4.22;1.15;;;13.40;99.90;;;;;;4992576;28;20045;-74
2022/09/20 11:18:14;;;;;;;4.43;0.70;;;13.30;99.90;;;;;;4988445;28;20034;-76
2022/09/20 11:21:09;;;;;;;3.17;1.40;;;13.30;99.90;;;;;;4994685;28;20053;-75
2022/09/20 11:23:58;;;;;;;5.60;1.23;;;13.00;99.90;;;;;;4983452;28;20046;-74
2022/09/20 11:26:40;;;;;;;2.58;1.00;;;12.70;99.90;;;;;;4981176;28;20046;-78
2022/09/20 11:29:18;;;;;;;2.92;0.80;;;12.60;99.90;;;;;;4990300;28;20053;-75
2022/09/20 11:31:49;;;;;;;2.22;1.15;;;12.20;99.90;;;;;;4995190;28;20030;-76
2022/09/20 11:34:32;;;;;;;5.57;1.15;;;12.20;99.90;;;;;;4992930;28;20035;-75
2022/09/20 11:37:02;;;;;;;1.90;0.82;;;12.20;99.90;;;;;;4978863;28;20062;-76
2022/09/20 11:39:39;;;;;;;3.65;0.70;;;12.20;99.90;;;;;;4993921;28;20038;-76
2022/09/20 11:42:12;;;;;;;1.92;1.05;;;12.20;99.90;;;;;;4993976;28;20054;-73
2022/09/20 11:44:41;;;;;;;2.20;1.05;;;12.40;99.90;;;;;;4986586;28;20394;-75
2022/09/20 11:47:28;;;;;;;2.88;1.30;;;12.70;99.90;;;;;;4994247;28;20030;-76
2022/09/20 11:50:10;;;;;;;2.83;1.08;;;12.80;99.90;;;;;;4993654;28;20423;-76
2022/09/20 11:53:18;;;;;;;3.63;1.10;;;12.80;99.90;;;;;;4976100;28;20056;-75
2022/09/20 11:56:19;;;;;;;2.55;0.90;;;13.10;99.90;;;;;;4992734;28;20061;-75
2022/09/20 11:58:50;;;;;;;6.03;1.10;;;13.60;99.90;;;;;;4971803;28;20050;-76
2022/09/20 12:01:27;;;;;;;1.98;0.85;;;14.10;99.90;;;;;;4975599;28;20043;-76
2022/09/20 12:04:01;;;;;;;2.42;0.98;;;14.50;99.90;;;;;;4992399;28;20034;-75
2022/09/20 12:06:34;;;;;;;1.65;0.60;;;15.00;99.90;;;;;;4993381;28;20371;-76
2022/09/20 12:09:05;;;;;;;4.95;1.17;;;15.30;99.90;;;;;;4993770;28;20038;-75
2022/09/20 12:11:34;;;;;;;3.55;1.38;;;15.30;99.90;;;;;;4993048;28;20034;-74
2022/09/20 12:14:05;;;;;;;4.30;0.87;;;15.50;99.90;;;;;;4992487;28;20058;-75
2022/09/20 12:16:41;;;;;;;1.45;0.63;;;15.40;94.50;;;;;;4992845;28;20502;-76
2022/09/20 12:19:12;;;;;;;1.50;0.90;;;15.50;94.10;;;;;;4976324;28;20050;-74
2022/09/20 12:21:57;;;;;;;2.00;1.02;;;15.60;94.20;;;;;;4992767;28;20041;-74
2022/09/20 12:24:32;;;;;;;2.10;1.08;;;15.80;96.30;;;;;;4991512;28;20045;-74
2022/09/20 12:27:03;;;;;;;1.40;0.75;;;15.80;96.10;;;;;;4994140;28;20368;-74
2022/09/20 12:29:30;;;;;;;2.10;0.80;;;15.40;99.20;;;;;;4992351;28;20053;-74
2022/09/20 12:32:00;;;;;;;2.45;0.80;;;15.50;98.00;;;;;;4975527;28;20042;-74
2022/09/20 12:34:33;;;;;;;5.20;1.27;;;15.20;98.70;;;;;;4991197;28;20038;-76
2022/09/20 12:37:00;;;;;;;2.70;0.70;;;15.60;98.50;;;;;;4993063;28;20050;-74
2022/09/20 12:39:28;;;;;;;2.05;0.65;;;15.80;96.70;;;;;;4992524;28;20041;-75
2022/09/20 12:42:09;;;;;;;3.10;0.95;;;15.80;93.20;;;;;;4993314;28;20037;-75
2022/09/20 12:45:11;;;;;;;2.42;0.50;;;15.30;92.80;;;;;;4991554;28;20038;-74
2022/09/20 12:47:37;;;;;;;2.85;0.93;;;15.30;94.60;;;;;;4981441;28;20119;-76
2022/09/20 12:53:03;;;;;;;3.50;1.02;;;15.00;96.90;;;;;;4992881;28;20038;-76
2022/09/20 12:55:51;;;;;;;4.05;0.98;;;15.20;97.70;;;;;;4991537;28;20034;-76
2022/09/20 12:58:49;;;;;;;2.92;0.70;;;15.40;96.70;;;;;;4991804;28;20050;-75
2022/09/20 13:01:16;;;;;;;1.48;0.65;;;15.70;95.00;;;;;;4992556;28;20038;-76
2022/09/20 13:03:45;;;;;;;1.88;1.10;;;15.60;91.80;;;;;;4990758;28;20810;-76
2022/09/20 13:06:15;;;;;;;1.50;0.60;;;15.30;88.40;;;;;;4992711;28;20034;-74
2022/09/20 13:08:47;;;;;;;5.55;0.98;;;15.20;90.70;;;;;;4992458;28;20049;-76
2022/09/20 13:11:26;;;;;;;3.72;0.95;;;15.10;90.30;;;;;;4992968;28;20464;-76
2022/09/20 13:14:13;;;;;;;2.30;0.95;;;14.90;92.70;;;;;;4991317;28;20041;-75
2022/09/20 13:16:54;;;;;;;2.95;1.05;;;14.90;93.70;;;;;;4974557;28;20042;-76
2022/09/20 13:19:43;;;;;;;2.92;0.90;;;15.00;93.00;;;;;;4993527;28;20364;-77
2022/09/20 13:22:31;;;;;;;2.22;0.73;;;15.00;93.70;;;;;;4993195;28;20049;-75
2022/09/20 13:25:04;;;;;;;1.77;0.77;;;14.90;93.60;;;;;;4992577;28;20038;-77
2022/09/20 13:27:37;;;;;;;4.90;0.63;;;14.90;93.60;;;;;;4991827;28;20379;-76
2022/09/20 13:30:16;;;;;;;1.98;0.93;;;15.00;92.30;;;;;;4992527;28;20053;-77
2022/09/20 13:32:43;;;;;;;2.75;1.20;;;15.10;91.80;;;;;;4991711;28;20451;-78
2022/09/20 13:35:09;;;;;;;1.30;0.82;;;15.30;91.70;;;;;;4991405;28;20030;-78
2022/09/20 13:37:46;;;;;;;3.08;0.98;;;15.60;91.10;;;;;;4991324;28;20053;-77
2022/09/20 13:40:32;;;;;;;1.75;0.90;;;15.50;90.20;;;;;;4993917;28;20049;-78
2022/09/20 13:43:01;;;;;;;3.88;0.93;;;15.40;90.80;;;;;;4979311;28;20030;-77
2022/09/20 13:45:27;;;;;;;2.80;0.90;;;15.20;91.70;;;;;;4994363;28;20026;-80
2022/09/20 13:47:56;;;;;;;4.25;1.52;;;15.30;91.60;;;;;;4996011;28;20031;-79
2022/09/20 13:50:34;;;;;;;1.98;1.05;;;15.10;90.70;;;;;;4996741;28;20030;-78
2022/09/20 13:53:02;;;;;;;2.55;1.08;;;14.90;91.80;;;;;;4999264;28;20074;-79
2022/09/20 13:55:34;;;;;;;2.65;1.10;;;14.80;92.90;;;;;;4997873;28;20026;-76
2022/09/20 13:58:04;;;;;;;4.05;1.10;;;14.60;92.80;;;;;;5006620;28;20042;-78
2022/09/20 14:00:31;;;;;;;2.00;0.95;;;14.40;94.30;;;;;;5015973;28;20041;-79
2022/09/20 14:02:58;;;;;;;2.63;0.90;;;14.50;95.90;;;;;;5008778;28;20034;-79
2022/09/20 14:05:27;;;;;;;2.28;1.05;;;14.50;94.30;;;;;;4999308;28;20026;-79